Time;durP1;ratioP1;P1;durP2;ratioP2;P2;SDS_P1;SDS_P2;PMS_P1;PMS_P2;Temp;Humidity;BMP_temperature;BMP_pressure;BME280_temperature;BME280_humidity;BME280_pressure;Samples;Min_cycle;Max_cycle;Signal;HPM_P1;HPM_P2
2023/03/05 00:02:36;;;;;;;89.40;34.25;;;1.30;99.90;;;;;;5945592;24;20053;-93
2023/03/05 00:06:56;;;;;;;;;;;;;;;;;;;;;
2023/03/05 00:38:41;;;;;;;81.57;34.67;;;1.20;99.90;;;;;;6282254;22;1442604;-89
2023/03/05 00:46:53;;;;;;;;;;;;;;;;;;;;;
2023/03/05 00:53:43;;;;;;;;;;;;;;;;;;;;;
2023/03/05 00:57:10;;;;;;;96.50;38.53;;;1.20;99.90;;;;;;6203640;23;20447;-93
2023/03/05 01:00:02;;;;;;;92.38;37.65;;;1.20;99.90;;;;;;6262475;23;20039;-89
2023/03/05 01:02:58;;;;;;;100.13;39.03;;;1.10;99.90;;;;;;6268736;22;20084;-93
2023/03/05 01:06:04;;;;;;;90.60;37.80;;;1.10;99.90;;;;;;6267941;23;20043;-92
2023/03/05 01:09:01;;;;;;;93.18;37.55;;;1.10;99.90;;;;;;6258442;23;20028;-93
2023/03/05 01:16:12;;;;;;;87.55;37.35;;;1.10;99.90;;;;;;6199062;22;20031;-92
2023/03/05 01:23:05;;;;;;;96.68;38.10;;;1.10;99.90;;;;;;6256293;23;20036;-91
2023/03/05 01:35:35;;;;;;;95.03;35.97;;;1.00;99.90;;;;;;6252168;23;20008;-91
2023/03/05 01:38:17;;;;;;;89.28;37.65;;;1.00;99.90;;;;;;6240396;22;20028;-89
2023/03/05 01:46:18;;;;;;;;;;;;;;;;;;;;;
2023/03/05 01:49:58;;;;;;;;;;;;;;;;;;;;;
2023/03/05 01:53:25;;;;;;;92.65;37.95;;;1.10;99.90;;;;;;5958779;24;20064;-92
2023/03/05 02:20:56;;;;;;;88.35;37.35;;;1.00;99.90;;;;;;5980672;24;20269;-92
2023/03/05 02:28:23;;;;;;;;;;;;;;;;;;;;;
2023/03/05 02:34:29;;;;;;;92.40;36.17;;;1.00;99.90;;;;;;6043311;23;20021;-92
2023/03/05 02:37:17;;;;;;;88.22;37.25;;;1.00;99.90;;;;;;6125938;23;20426;-92
2023/03/05 02:48:45;;;;;;;93.22;35.75;;;1.10;99.90;;;;;;5823629;24;20025;-92
2023/03/05 02:52:53;;;;;;;;;;;;;;;;;;;;;
2023/03/05 02:56:03;;;;;;;101.45;37.78;;;1.10;99.90;;;;;;6156773;23;20021;-92
2023/03/05 03:03:56;;;;;;;89.53;38.92;;;1.00;99.90;;;;;;6134506;23;20041;-93
2023/03/05 03:08:16;;;;;;;;;;;;;;;;;;;;;
2023/03/05 03:11:37;;;;;;;;;;;;;;;;;;;;;
2023/03/05 03:15:09;;;;;;;78.80;35.83;;;1.00;1.00;;;;;;6250279;23;20039;-91
2023/03/05 03:19:00;;;;;;;92.82;38.22;;;1.10;1.00;;;;;;6090639;23;20033;-93
2023/03/05 03:26:57;;;;;;;;;;;;;;;;;;;;;
2023/03/05 03:34:21;;;;;;;92.95;36.83;;;1.10;1.00;;;;;;6020777;23;20016;-92
2023/03/05 03:41:00;;;;;;;92.55;36.75;;;1.10;1.00;;;;;;6141337;23;20519;-93
2023/03/05 03:44:33;;;;;;;89.35;37.08;;;1.20;1.00;;;;;;6125050;23;20026;-92
2023/03/05 03:48:05;;;;;;;;;;;;;;;;;;;;;
2023/03/05 03:51:53;;;;;;;80.72;35.17;;;1.10;1.00;;;;;;6127272;23;20173;-92
2023/03/05 03:55:07;;;;;;;90.75;37.75;;;1.20;1.00;;;;;;6107055;23;20037;-94
2023/03/05 03:58:20;;;;;;;87.97;34.70;;;1.20;1.00;;;;;;6158673;23;20415;-93
2023/03/05 04:01:50;;;;;;;89.70;35.42;;;1.20;1.00;;;;;;6157257;23;20029;-91
2023/03/05 04:13:15;;;;;;;;;;;;;;;;;;;;;
2023/03/05 04:16:33;;;;;;;88.88;36.15;;;1.10;1.00;;;;;;6158173;23;20152;-92
2023/03/05 04:19:23;;;;;;;91.40;37.13;;;1.10;24.10;;;;;;6155173;23;20137;-93
2023/03/05 04:22:43;;;;;;;91.53;36.03;;;1.10;99.90;;;;;;6138924;23;20120;-94
2023/03/05 04:38:37;;;;;;;88.35;37.33;;;1.00;1.00;;;;;;6041515;23;20023;-94
2023/03/05 04:41:56;;;;;;;91.18;37.72;;;1.00;1.00;;;;;;6041387;23;20090;-93
2023/03/05 04:45:16;;;;;;;92.97;39.97;;;0.90;1.00;;;;;;6135102;23;20373;-92
2023/03/05 04:49:03;;;;;;;103.97;38.22;;;0.90;1.00;;;;;;6138763;23;20030;-91
2023/03/05 04:56:00;;;;;;;;;;;;;;;;;;;;;
2023/03/05 04:59:12;;;;;;;98.13;37.08;;;0.90;1.00;;;;;;6159001;23;20033;-92
2023/03/05 05:06:36;;;;;;;;;;;;;;;;;;;;;
2023/03/05 05:09:56;;;;;;;91.65;37.08;;;0.90;1.00;;;;;;5932498;24;20154;-94
2023/03/05 05:20:09;;;;;;;88.85;38.30;;;0.90;1.00;;;;;;6014007;23;20023;-91
2023/03/05 05:23:33;;;;;;;87.85;37.05;;;0.90;1.00;;;;;;5988445;23;20076;-93
2023/03/05 05:26:24;;;;;;;;;;;0.80;1.00;;;;;;6003679;23;20015;-93
2023/03/05 05:29:48;;;;;;;;;;;;;;;;;;;;;
2023/03/05 05:40:58;;;;;;;87.25;34.97;;;0.90;99.90;;;;;;6174074;23;20029;-90
2023/03/05 05:56:32;;;;;;;;;;;;;;;;;;;;;
2023/03/05 06:00:13;;;;;;;86.22;35.17;;;0.90;99.90;;;;;;6014770;23;20012;-93
2023/03/05 06:03:59;;;;;;;84.22;35.33;;;0.90;99.90;;;;;;5969421;24;20340;-92
2023/03/05 06:18:53;;;;;;;;;;;;;;;;;;;;;
2023/03/05 06:22:23;;;;;;;78.90;32.20;;;0.90;99.90;;;;;;6084692;23;20034;-91
2023/03/05 06:33:35;;;;;;;82.20;34.47;;;1.00;99.90;;;;;;5938974;24;20048;-90
2023/03/05 06:36:24;;;;;;;88.18;36.53;;;1.00;99.90;;;;;;6094381;23;20149;-88
2023/03/05 06:39:13;;;;;;;85.35;33.67;;;1.00;99.90;;;;;;6157287;23;20092;-89
2023/03/05 06:42:02;;;;;;;79.38;32.75;;;1.10;99.90;;;;;;6158626;23;20025;-90
2023/03/05 06:44:49;;;;;;;78.50;31.13;;;1.10;99.90;;;;;;6155555;23;20022;-90
2023/03/05 06:47:36;;;;;;;70.38;30.67;;;1.20;99.90;;;;;;6155363;23;20056;-87
2023/03/05 06:50:27;;;;;;;77.40;32.30;;;1.20;99.90;;;;;;6174628;23;20056;-89
2023/03/05 06:53:14;;;;;;;69.18;29.30;;;1.30;99.90;;;;;;6248826;23;20024;-91
2023/03/05 06:56:09;;;;;;;66.40;29.05;;;1.30;99.90;;;;;;6247267;23;20035;-89
2023/03/05 06:58:56;;;;;;;74.25;31.70;;;1.40;99.90;;;;;;6246498;23;20031;-91
2023/03/05 07:02:00;;;;;;;72.57;31.02;;;1.40;99.90;;;;;;6248933;22;20379;-90
2023/03/05 07:04:47;;;;;;;77.18;30.05;;;1.40;63.90;;;;;;6248584;22;20027;-93
2023/03/05 07:07:35;;;;;;;76.63;32.28;;;1.40;29.80;;;;;;6248491;23;20028;-91
2023/03/05 07:10:22;;;;;;;83.13;35.67;;;1.50;1.00;;;;;;6246868;23;20028;-88
2023/03/05 07:13:10;;;;;;;86.03;33.63;;;1.50;1.00;;;;;;6247590;23;20028;-91
2023/03/05 07:15:57;;;;;;;74.55;31.15;;;1.40;1.00;;;;;;6247002;23;20352;-90
2023/03/05 07:18:45;;;;;;;82.60;32.10;;;1.50;1.00;;;;;;6250573;23;20028;-90
2023/03/05 07:21:34;;;;;;;83.03;31.83;;;1.50;1.00;;;;;;6255498;23;20658;-88
2023/03/05 07:24:28;;;;;;;77.60;32.97;;;1.60;1.00;;;;;;6248838;23;20109;-90
2023/03/05 07:27:16;;;;;;;74.00;32.33;;;1.60;1.00;;;;;;6247412;23;20020;-93
2023/03/05 07:30:04;;;;;;;72.65;31.67;;;1.60;1.00;;;;;;6247874;23;20103;-92
2023/03/05 07:33:25;;;;;;;68.50;30.50;;;1.60;1.00;;;;;;6251504;23;20061;-91
2023/03/05 07:37:16;;;;;;;74.22;33.55;;;1.80;99.90;;;;;;6187863;23;20029;-92
2023/03/05 07:40:45;;;;;;;75.70;31.55;;;1.80;99.90;;;;;;6167368;23;20024;-93
2023/03/05 07:44:32;;;;;;;71.70;31.48;;;1.90;99.90;;;;;;6161908;23;20029;-93
2023/03/05 07:48:25;;;;;;;;;;;;;;;;;;;;;
2023/03/05 07:55:25;;;;;;;74.00;32.00;;;2.10;99.90;;;;;;6042528;23;20046;-92
2023/03/05 08:05:39;;;;;;;74.80;30.48;;;2.00;21.90;;;;;;6064235;23;20059;-92
2023/03/05 08:08:36;;;;;;;;;;;;;;;;;;;;;
2023/03/05 08:11:48;;;;;;;64.32;28.13;;;2.10;1.00;;;;;;6258798;23;20063;-89
2023/03/05 08:14:38;;;;;;;66.13;29.23;;;2.10;1.00;;;;;;6246630;23;20072;-93
2023/03/05 08:17:26;;;;;;;67.47;29.77;;;2.30;1.00;;;;;;6249620;22;20025;-91
2023/03/05 08:20:18;;;;;;;74.93;29.05;;;2.40;1.00;;;;;;6247906;23;20028;-90
2023/03/05 08:23:05;;;;;;;65.97;29.05;;;2.40;1.00;;;;;;6249568;23;20027;-91
2023/03/05 08:25:55;;;;;;;60.72;27.85;;;2.50;1.00;;;;;;6247688;23;20106;-90
2023/03/05 08:28:52;;;;;;;60.95;27.85;;;2.50;1.00;;;;;;6246690;23;20447;-91
2023/03/05 08:31:48;;;;;;;63.20;28.67;;;2.70;1.00;;;;;;6248898;23;20035;-88
2023/03/05 08:34:35;;;;;;;60.75;27.77;;;2.80;99.90;;;;;;6246095;23;20020;-87
2023/03/05 08:37:23;;;;;;;59.78;27.23;;;2.80;99.90;;;;;;6247864;23;20032;-87
2023/03/05 08:40:11;;;;;;;62.65;27.92;;;2.90;99.90;;;;;;6247240;23;20028;-87
2023/03/05 08:43:01;;;;;;;59.45;27.95;;;3.10;99.90;;;;;;6248830;23;20039;-89
2023/03/05 08:45:50;;;;;;;55.95;25.67;;;3.20;99.90;;;;;;6248084;23;20030;-87
2023/03/05 08:48:38;;;;;;;64.03;29.20;;;3.10;99.90;;;;;;6248778;23;20020;-86
2023/03/05 08:51:28;;;;;;;56.33;25.20;;;3.10;99.90;;;;;;6251771;23;20020;-85
2023/03/05 08:54:17;;;;;;;59.67;27.27;;;3.20;99.90;;;;;;6250558;23;20028;-87
2023/03/05 08:57:06;;;;;;;60.00;27.08;;;3.20;99.90;;;;;;6249069;23;20024;-85
2023/03/05 08:59:53;;;;;;;55.30;25.80;;;3.20;99.90;;;;;;6247986;23;20035;-85
2023/03/05 09:02:43;;;;;;;48.47;23.92;;;3.30;99.90;;;;;;6253301;22;20021;-87
2023/03/05 09:05:31;;;;;;;49.05;24.08;;;3.50;99.90;;;;;;6250624;23;20024;-86
2023/03/05 09:08:20;;;;;;;52.38;25.67;;;3.70;99.90;;;;;;6249852;23;20063;-85
2023/03/05 09:11:10;;;;;;;50.83;24.02;;;3.80;99.90;;;;;;6248313;23;20055;-88
2023/03/05 09:13:57;;;;;;;46.60;22.80;;;3.90;99.90;;;;;;6249141;23;20090;-87
2023/03/05 09:16:44;;;;;;;45.53;22.75;;;3.80;81.30;;;;;;6254524;22;20059;-86
2023/03/05 09:19:31;;;;;;;46.17;22.15;;;3.70;45.70;;;;;;6259533;23;20351;-84
2023/03/05 09:22:19;;;;;;;40.80;22.55;;;3.80;36.60;;;;;;6269200;22;20020;-87
2023/03/05 09:25:10;;;;;;;55.67;27.58;;;4.00;10.00;;;;;;6264428;22;20024;-87
2023/03/05 09:27:57;;;;;;;49.83;23.58;;;4.10;1.00;;;;;;6251581;23;20020;-87
2023/03/05 09:30:45;;;;;;;44.28;22.15;;;4.30;1.00;;;;;;6251822;23;20052;-88
2023/03/05 09:33:33;;;;;;;41.90;21.48;;;4.60;1.00;;;;;;6248037;23;20028;-88
2023/03/05 09:36:30;;;;;;;47.72;22.05;;;4.80;1.00;;;;;;6248008;23;20028;-86
2023/03/05 09:39:19;;;;;;;38.35;21.30;;;4.80;1.00;;;;;;6248147;23;20335;-87
2023/03/05 09:42:28;;;;;;;39.95;22.05;;;4.90;1.00;;;;;;6248752;23;20035;-89
2023/03/05 09:45:35;;;;;;;44.72;21.30;;;5.10;1.00;;;;;;6246674;23;20055;-86
2023/03/05 09:48:51;;;;;;;32.97;19.10;;;5.20;1.00;;;;;;6248086;23;20099;-88
2023/03/05 09:51:40;;;;;;;39.47;20.02;;;5.50;99.90;;;;;;6248383;23;20035;-90
2023/03/05 09:54:57;;;;;;;37.63;20.25;;;5.80;99.90;;;;;;6245769;23;20051;-84
2023/03/05 09:57:50;;;;;;;40.22;20.58;;;6.00;99.90;;;;;;6249693;22;20032;-85
2023/03/05 10:00:54;;;;;;;37.50;20.05;;;5.90;99.90;;;;;;6248788;23;20031;-86
2023/03/05 10:03:44;;;;;;;36.13;20.13;;;5.90;99.90;;;;;;6255057;23;20021;-88
2023/03/05 10:06:40;;;;;;;38.92;19.73;;;5.90;99.90;;;;;;6264389;22;20051;-85
2023/03/05 10:09:43;;;;;;;36.10;19.33;;;6.10;99.90;;;;;;6262387;22;20024;-88
2023/03/05 10:12:43;;;;;;;35.35;19.33;;;6.00;99.90;;;;;;6259713;23;20024;-85
2023/03/05 10:16:06;;;;;;;33.13;18.10;;;6.30;99.90;;;;;;6268157;22;20034;-86
2023/03/05 10:19:09;;;;;;;34.38;19.35;;;6.10;99.90;;;;;;6266237;23;20039;-87
2023/03/05 10:22:12;;;;;;;39.08;19.58;;;6.20;99.90;;;;;;6268618;22;20016;-85
2023/03/05 10:25:27;;;;;;;34.92;19.10;;;5.90;99.90;;;;;;6265912;23;20028;-83
2023/03/05 10:28:27;;;;;;;36.42;17.77;;;5.60;99.90;;;;;;6259821;23;20023;-88
2023/03/05 10:31:42;;;;;;;33.90;18.27;;;5.50;99.90;;;;;;6263264;23;20032;-87
2023/03/05 10:34:41;;;;;;;37.22;19.10;;;5.40;99.90;;;;;;6251999;23;20435;-85
2023/03/05 10:37:37;;;;;;;34.78;17.50;;;5.40;99.90;;;;;;6250348;23;20020;-85
2023/03/05 10:40:40;;;;;;;38.88;18.95;;;5.30;99.90;;;;;;6247764;23;20024;-88
2023/03/05 10:43:42;;;;;;;37.95;19.20;;;5.10;99.90;;;;;;6247718;23;20382;-86
2023/03/05 10:46:34;;;;;;;34.25;17.17;;;5.00;99.90;;;;;;6249649;22;20024;-89
2023/03/05 10:49:28;;;;;;;30.73;18.75;;;5.10;99.90;;;;;;6247830;23;20024;-87
2023/03/05 10:52:27;;;;;;;41.58;19.83;;;4.90;99.90;;;;;;6247433;23;20079;-86
2023/03/05 10:55:18;;;;;;;37.05;19.20;;;4.90;99.90;;;;;;6244756;23;20024;-89
2023/03/05 10:58:14;;;;;;;31.63;17.10;;;5.00;99.90;;;;;;6249695;23;20032;-87
2023/03/05 11:01:17;;;;;;;31.30;17.00;;;4.70;99.90;;;;;;6258765;23;20051;-86
2023/03/05 11:04:25;;;;;;;;;;;4.50;99.90;;;;;;6261842;23;20024;-85
2023/03/05 11:07:17;;;;;;;36.50;17.90;;;4.50;99.90;;;;;;6261908;23;19916;-83
2023/03/05 11:10:18;;;;;;;35.00;18.88;;;4.30;99.90;;;;;;6271200;22;20028;-84
2023/03/05 11:13:25;;;;;;;44.60;19.45;;;4.30;99.90;;;;;;6256973;23;20032;-83
2023/03/05 11:16:19;;;;;;;37.50;19.08;;;4.30;99.90;;;;;;6258573;23;20035;-87
2023/03/05 11:19:17;;;;;;;41.42;20.67;;;4.20;99.90;;;;;;6252726;23;20028;-85
2023/03/05 11:22:15;;;;;;;50.38;23.30;;;4.20;99.90;;;;;;6248733;23;20024;-86
2023/03/05 11:25:20;;;;;;;49.78;21.42;;;4.00;99.90;;;;;;6251522;23;20304;-87
2023/03/05 11:28:18;;;;;;;39.38;20.25;;;4.00;99.90;;;;;;6249081;23;20042;-87
2023/03/05 11:31:24;;;;;;;37.50;18.48;;;4.00;99.90;;;;;;6250836;23;20066;-84
2023/03/05 11:34:18;;;;;;;45.25;20.02;;;4.10;99.90;;;;;;6251683;23;20024;-86
2023/03/05 11:37:19;;;;;;;36.60;18.50;;;4.20;99.90;;;;;;6254973;22;20030;-85
2023/03/05 11:40:09;;;;;;;40.20;19.33;;;4.20;99.90;;;;;;6249968;23;20024;-85
2023/03/05 11:43:01;;;;;;;36.85;18.65;;;4.10;99.90;;;;;;6254654;23;20027;-87
2023/03/05 11:45:55;;;;;;;36.95;19.17;;;4.10;99.90;;;;;;6268307;22;20024;-86
2023/03/05 11:48:45;;;;;;;38.97;18.83;;;4.00;99.90;;;;;;6260079;23;20047;-88
2023/03/05 11:51:42;;;;;;;38.33;19.08;;;3.90;99.90;;;;;;6247507;23;20027;-85
2023/03/05 11:54:56;;;;;;;40.38;20.20;;;3.90;99.90;;;;;;6249594;22;20032;-87
2023/03/05 11:58:14;;;;;;;40.63;20.27;;;3.80;99.90;;;;;;6247187;23;20030;-85
2023/03/05 12:01:08;;;;;;;36.38;19.42;;;3.70;99.90;;;;;;6253091;22;20031;-86
2023/03/05 12:03:55;;;;;;;42.88;19.85;;;3.80;99.90;;;;;;6255590;23;20024;-86
2023/03/05 12:06:47;;;;;;;34.30;19.00;;;3.80;99.90;;;;;;6247234;23;20200;-87
2023/03/05 12:09:48;;;;;;;34.58;18.77;;;3.90;99.90;;;;;;6248649;23;20020;-87
2023/03/05 12:12:36;;;;;;;37.85;19.27;;;3.90;99.90;;;;;;6246513;23;20305;-86
2023/03/05 12:15:42;;;;;;;35.75;19.40;;;3.80;99.90;;;;;;6246419;23;20028;-88
2023/03/05 12:18:35;;;;;;;35.42;18.52;;;3.90;99.90;;;;;;6248315;23;20043;-85
2023/03/05 12:21:42;;;;;;;39.17;19.45;;;3.80;99.90;;;;;;6245761;23;20024;-86
2023/03/05 12:24:30;;;;;;;41.28;19.27;;;3.80;99.90;;;;;;6248876;22;20024;-84
2023/03/05 12:27:32;;;;;;;40.58;20.10;;;3.80;99.90;;;;;;6247144;23;20410;-84
2023/03/05 12:30:41;;;;;;;38.05;20.05;;;3.70;99.90;;;;;;6250490;22;20020;-85
2023/03/05 12:33:42;;;;;;;40.35;18.20;;;3.70;99.90;;;;;;6253319;23;20073;-79
2023/03/05 12:36:34;;;;;;;44.15;18.50;;;3.70;99.90;;;;;;6254232;23;20041;-88
2023/03/05 12:39:46;;;;;;;41.97;18.60;;;3.70;99.90;;;;;;6252673;23;20032;-86
2023/03/05 12:42:34;;;;;;;38.58;18.40;;;3.70;99.90;;;;;;6253069;23;20059;-82
2023/03/05 12:45:22;;;;;;;38.70;18.83;;;3.70;99.90;;;;;;6248569;23;20408;-86
2023/03/05 12:48:11;;;;;;;39.45;18.85;;;3.70;99.90;;;;;;6250044;23;20038;-86
2023/03/05 12:51:01;;;;;;;41.15;21.08;;;3.80;99.90;;;;;;6246833;23;20111;-85
2023/03/05 12:53:50;;;;;;;44.67;20.52;;;3.80;99.90;;;;;;6247918;23;20059;-86
2023/03/05 12:56:45;;;;;;;43.10;22.27;;;3.70;99.90;;;;;;6245559;23;20024;-86
2023/03/05 12:59:43;;;;;;;50.35;22.73;;;3.70;99.90;;;;;;6247712;23;20032;-87
2023/03/05 13:02:39;;;;;;;46.88;21.85;;;3.70;99.90;;;;;;6249019;22;20032;-87
2023/03/05 13:05:35;;;;;;;41.33;21.92;;;3.70;99.90;;;;;;6247762;22;20020;-85
2023/03/05 13:08:25;;;;;;;47.20;21.63;;;3.70;99.90;;;;;;6248853;22;20051;-88
2023/03/05 13:11:19;;;;;;;49.47;21.77;;;3.70;99.90;;;;;;6246458;23;20030;-87
2023/03/05 13:14:31;;;;;;;41.28;21.00;;;3.70;99.90;;;;;;6245135;23;20060;-85
2023/03/05 13:17:39;;;;;;;42.00;22.00;;;3.70;99.90;;;;;;6245563;23;20035;-86
2023/03/05 13:20:41;;;;;;;49.13;21.70;;;3.80;99.90;;;;;;6247175;23;20036;-86
2023/03/05 13:23:29;;;;;;;45.15;21.67;;;3.80;99.90;;;;;;6247556;22;20020;-85
2023/03/05 13:26:19;;;;;;;45.67;21.83;;;3.80;99.90;;;;;;6247828;22;20087;-86
2023/03/05 13:29:10;;;;;;;49.10;22.83;;;3.80;99.90;;;;;;6245539;23;20032;-88
2023/03/05 13:32:00;;;;;;;44.42;23.02;;;3.80;99.90;;;;;;6253401;22;20020;-87
2023/03/05 13:34:53;;;;;;;41.05;21.23;;;3.80;99.90;;;;;;6261080;23;20055;-87
2023/03/05 13:37:43;;;;;;;42.97;22.42;;;3.90;99.90;;;;;;6260341;23;20047;-85
2023/03/05 13:40:33;;;;;;;44.20;21.65;;;3.90;99.90;;;;;;6258709;23;20023;-85
2023/03/05 13:43:21;;;;;;;41.80;20.63;;;4.10;99.90;;;;;;6248800;23;20031;-86
2023/03/05 13:46:08;;;;;;;41.58;20.25;;;4.10;99.90;;;;;;6246396;23;20035;-86
2023/03/05 13:48:58;;;;;;;37.35;18.60;;;4.10;99.90;;;;;;6246980;23;20024;-85
2023/03/05 13:51:51;;;;;;;41.67;19.67;;;4.10;99.90;;;;;;6249405;23;20020;-87
2023/03/05 13:54:41;;;;;;;36.20;18.85;;;4.20;99.90;;;;;;6247527;23;20062;-86
2023/03/05 13:57:39;;;;;;;42.58;20.48;;;4.30;99.90;;;;;;6249462;23;20497;-86
2023/03/05 14:00:35;;;;;;;41.03;19.23;;;4.50;99.90;;;;;;6248095;23;20028;-87
2023/03/05 14:03:26;;;;;;;38.80;19.13;;;4.60;99.90;;;;;;6253134;23;20096;-89
2023/03/05 14:06:19;;;;;;;39.05;18.52;;;4.60;99.90;;;;;;6262670;23;20070;-83
2023/03/05 14:09:18;;;;;;;38.63;18.20;;;4.60;99.90;;;;;;6266283;23;20028;-85
2023/03/05 14:12:26;;;;;;;37.85;18.35;;;4.60;99.90;;;;;;6263781;22;20307;-87
2023/03/05 14:15:22;;;;;;;40.63;17.75;;;4.70;99.90;;;;;;6252621;23;20031;-87
2023/03/05 14:18:12;;;;;;;41.28;18.25;;;4.70;99.90;;;;;;6251235;23;20335;-89
2023/03/05 14:21:09;;;;;;;32.17;17.63;;;4.60;99.90;;;;;;6260496;23;20028;-86
2023/03/05 14:24:10;;;;;;;36.95;18.13;;;4.70;99.90;;;;;;6266450;23;20074;-87
2023/03/05 14:27:12;;;;;;;35.17;18.70;;;4.60;99.90;;;;;;6261347;23;20022;-89
2023/03/05 14:30:00;;;;;;;35.95;17.15;;;4.60;99.90;;;;;;6254806;23;20020;-85
2023/03/05 14:32:49;;;;;;;38.03;17.30;;;4.50;99.90;;;;;;6252345;23;20067;-88
2023/03/05 14:35:48;;;;;;;36.75;17.98;;;4.60;99.90;;;;;;6263447;22;20028;-87
2023/03/05 14:38:40;;;;;;;39.17;18.05;;;4.60;99.90;;;;;;6252110;23;20031;-86
2023/03/05 14:41:28;;;;;;;36.33;17.30;;;4.50;99.90;;;;;;6259436;23;20024;-85
2023/03/05 14:44:17;;;;;;;38.20;17.27;;;4.40;99.90;;;;;;6262689;22;20028;-85
2023/03/05 14:47:07;;;;;;;37.78;17.98;;;4.40;99.90;;;;;;6266745;23;20130;-84
2023/03/05 14:49:55;;;;;;;42.92;17.75;;;4.30;99.90;;;;;;6264967;23;20028;-85
2023/03/05 14:52:45;;;;;;;38.67;17.35;;;4.10;99.90;;;;;;6261967;22;20028;-87
2023/03/05 14:55:37;;;;;;;40.42;18.15;;;4.00;99.90;;;;;;6257269;22;20028;-85
2023/03/05 14:58:31;;;;;;;35.60;17.52;;;4.00;99.90;;;;;;6259854;22;20028;-86
2023/03/05 15:01:19;;;;;;;43.33;18.83;;;3.90;99.90;;;;;;6256788;23;20080;-86
2023/03/05 15:04:17;;;;;;;37.50;17.98;;;3.90;99.90;;;;;;6256589;22;20024;-86
2023/03/05 15:07:17;;;;;;;36.85;17.48;;;4.00;99.90;;;;;;6260352;23;20031;-85
2023/03/05 15:10:07;;;;;;;38.72;19.35;;;4.00;99.90;;;;;;6254098;23;20081;-87
2023/03/05 15:12:57;;;;;;;39.10;18.52;;;3.90;99.90;;;;;;6253774;23;20456;-85
2023/03/05 15:15:49;;;;;;;39.55;18.92;;;3.90;99.90;;;;;;6250937;23;20074;-86
2023/03/05 15:18:41;;;;;;;34.03;17.33;;;3.90;99.90;;;;;;6252670;23;20027;-86
2023/03/05 15:21:30;;;;;;;43.47;18.70;;;3.70;99.90;;;;;;6252596;22;20024;-88
2023/03/05 15:24:17;;;;;;;40.40;18.75;;;3.60;99.90;;;;;;6253700;23;20020;-83
2023/03/05 15:27:06;;;;;;;39.60;19.60;;;3.60;99.90;;;;;;6252486;23;20082;-88
2023/03/05 15:29:53;;;;;;;36.08;18.48;;;3.50;99.90;;;;;;6251745;23;20445;-87
2023/03/05 15:32:41;;;;;;;36.50;17.60;;;3.50;99.90;;;;;;6247376;23;20088;-86
2023/03/05 15:35:29;;;;;;;41.88;19.10;;;3.40;99.90;;;;;;6229587;23;20257;-86
2023/03/05 15:38:17;;;;;;;36.08;18.27;;;3.40;99.90;;;;;;6250553;22;20099;-85
2023/03/05 15:41:05;;;;;;;38.97;18.33;;;3.40;99.90;;;;;;6249083;23;20075;-87
2023/03/05 15:43:53;;;;;;;42.83;19.90;;;3.40;99.90;;;;;;6262778;23;20054;-85
2023/03/05 15:46:42;;;;;;;41.95;20.23;;;3.30;99.90;;;;;;6265929;23;20058;-87
2023/03/05 15:49:32;;;;;;;40.30;19.10;;;3.30;99.90;;;;;;6263353;23;20012;-88
2023/03/05 15:52:19;;;;;;;44.10;19.45;;;3.30;99.90;;;;;;6263061;22;20027;-88
2023/03/05 15:55:09;;;;;;;41.95;19.23;;;3.30;99.90;;;;;;6258886;22;20119;-88
2023/03/05 15:57:56;;;;;;;39.05;18.88;;;3.30;99.90;;;;;;6257461;23;20024;-88
2023/03/05 16:00:47;;;;;;;45.90;20.48;;;3.30;99.90;;;;;;6255584;23;20034;-86
2023/03/05 16:03:35;;;;;;;44.80;18.85;;;3.20;99.90;;;;;;6250842;23;20028;-89
2023/03/05 16:06:25;;;;;;;43.45;19.52;;;3.20;99.90;;;;;;6251102;23;20028;-85
2023/03/05 16:09:13;;;;;;;46.03;20.35;;;3.20;99.90;;;;;;6261086;23;20020;-89
2023/03/05 16:12:23;;;;;;;;;;;;;;;;;;;;;
2023/03/05 16:15:20;;;;;;;45.00;20.35;;;3.10;1.00;;;;;;6263840;23;20055;-88
2023/03/05 16:18:12;;;;;;;43.53;19.58;;;3.10;1.00;;;;;;6259514;23;20024;-87
2023/03/05 16:21:02;;;;;;;45.20;21.23;;;3.00;1.00;;;;;;6257168;23;20024;-87
2023/03/05 16:23:52;;;;;;;43.28;19.65;;;2.90;1.00;;;;;;6253064;23;20100;-89
2023/03/05 16:26:54;;;;;;;;;;;;;;;;;;;;;
2023/03/05 16:29:46;;;;;;;43.25;19.92;;;2.80;1.00;;;;;;6264583;23;20039;-89
2023/03/05 16:32:33;;;;;;;48.40;21.58;;;2.80;1.00;;;;;;6262223;23;20032;-86
2023/03/05 16:35:21;;;;;;;45.60;20.88;;;2.80;1.00;;;;;;6264061;23;20031;-87
2023/03/05 16:38:11;;;;;;;57.13;24.92;;;2.80;1.00;;;;;;6261270;23;20024;-86
2023/03/05 16:41:02;;;;;;;54.35;21.98;;;2.80;1.00;;;;;;6254948;23;20024;-85
2023/03/05 16:43:55;;;;;;;46.10;19.25;;;2.70;1.00;;;;;;6245278;23;20024;-86
2023/03/05 16:46:47;;;;;;;44.75;20.65;;;2.70;1.00;;;;;;6244776;23;20319;-86
2023/03/05 16:49:41;;;;;;;49.78;19.92;;;2.70;1.00;;;;;;6251202;22;20016;-88
2023/03/05 16:52:38;;;;;;;38.47;16.92;;;2.60;1.00;;;;;;6249472;23;20051;-86
2023/03/05 16:55:28;;;;;;;44.78;20.77;;;2.60;1.00;;;;;;6256732;23;20084;-86
2023/03/05 16:58:17;;;;;;;43.60;20.88;;;2.60;1.00;;;;;;6248986;23;20054;-88
2023/03/05 17:01:10;;;;;;;53.42;21.95;;;2.60;1.00;;;;;;6252077;23;20024;-86
2023/03/05 17:03:59;;;;;;;42.40;20.23;;;2.60;1.00;;;;;;6229669;23;20020;-88
2023/03/05 17:06:49;;;;;;;40.45;21.13;;;2.50;1.00;;;;;;6253462;23;20020;-87
2023/03/05 17:09:37;;;;;;;50.05;22.42;;;2.50;1.00;;;;;;6253048;22;20297;-88
2023/03/05 17:12:25;;;;;;;46.13;21.30;;;2.50;1.00;;;;;;6248936;23;20038;-87
2023/03/05 17:15:23;;;;;;;53.00;22.23;;;2.40;1.00;;;;;;6251812;23;20086;-87
2023/03/05 17:18:11;;;;;;;49.30;21.13;;;2.40;1.00;;;;;;6247526;23;20414;-88
2023/03/05 17:21:00;;;;;;;49.47;21.65;;;2.30;1.00;;;;;;6253234;23;20048;-89
2023/03/05 17:23:53;;;;;;;38.00;20.02;;;2.30;1.00;;;;;;6253842;23;20020;-87
2023/03/05 17:26:42;;;;;;;41.38;20.02;;;2.30;1.00;;;;;;6249037;23;20054;-87
2023/03/05 17:29:31;;;;;;;42.50;20.58;;;2.20;1.00;;;;;;6255831;22;20024;-85
2023/03/05 17:32:21;;;;;;;48.22;20.90;;;2.20;1.00;;;;;;6254181;22;20019;-86
2023/03/05 17:35:20;;;;;;;49.35;22.27;;;2.20;1.00;;;;;;6230064;23;20028;-85
2023/03/05 17:38:09;;;;;;;43.58;21.60;;;2.20;1.00;;;;;;6256474;22;20054;-86
2023/03/05 17:40:57;;;;;;;48.97;20.63;;;2.10;1.00;;;;;;6255885;23;20028;-86
2023/03/05 17:43:45;;;;;;;47.03;21.63;;;2.10;1.00;;;;;;6255318;22;20016;-86
2023/03/05 17:46:33;;;;;;;51.58;22.60;;;2.10;1.00;;;;;;6251869;23;20034;-86
2023/03/05 17:49:20;;;;;;;50.40;21.88;;;2.10;1.00;;;;;;6256866;22;20103;-84
2023/03/05 17:52:08;;;;;;;47.78;21.75;;;2.10;1.00;;;;;;6252011;23;20024;-85
2023/03/05 17:54:56;;;;;;;46.45;20.45;;;2.00;5.30;;;;;;6254173;23;20113;-83
2023/03/05 17:57:48;;;;;;;51.10;22.42;;;2.00;8.70;;;;;;6262479;22;20028;-84
2023/03/05 18:00:37;;;;;;;47.78;21.25;;;2.00;12.40;;;;;;6261440;23;20032;-86
2023/03/05 18:03:25;;;;;;;44.65;21.35;;;2.10;15.20;;;;;;6261591;23;20058;-85
2023/03/05 18:06:13;;;;;;;48.47;21.60;;;2.00;16.70;;;;;;6264028;23;20020;-83
2023/03/05 18:09:03;;;;;;;43.85;20.48;;;2.10;17.50;;;;;;6257240;22;20024;-84
2023/03/05 18:11:51;;;;;;;44.95;21.52;;;2.10;16.30;;;;;;6253454;22;20024;-85
2023/03/05 18:14:38;;;;;;;50.53;20.92;;;2.10;15.20;;;;;;6251003;22;20024;-85
2023/03/05 18:17:26;;;;;;;48.20;21.60;;;2.00;15.10;;;;;;6250874;22;20028;-84
2023/03/05 18:20:28;;;;;;;48.40;20.45;;;2.00;15.60;;;;;;6247843;23;20024;-85
2023/03/05 18:23:18;;;;;;;51.13;22.88;;;2.10;18.20;;;;;;6247969;23;20106;-85
2023/03/05 18:26:05;;;;;;;45.67;20.38;;;2.00;18.30;;;;;;6249650;22;20095;-86
2023/03/05 18:28:56;;;;;;;48.15;23.45;;;2.10;18.80;;;;;;6247682;23;20024;-85
2023/03/05 18:31:45;;;;;;;50.72;22.65;;;2.10;16.50;;;;;;6248585;22;20035;-85
2023/03/05 18:34:41;;;;;;;52.80;22.27;;;2.00;17.00;;;;;;6247588;23;20039;-86
2023/03/05 18:37:30;;;;;;;53.28;24.65;;;2.00;16.90;;;;;;6247498;23;20050;-86
2023/03/05 18:40:20;;;;;;;55.80;24.17;;;2.00;18.90;;;;;;6247192;23;20426;-87
2023/03/05 18:43:16;;;;;;;53.05;24.42;;;2.00;21.90;;;;;;6252194;22;20046;-85
2023/03/05 18:46:06;;;;;;;47.72;22.58;;;1.90;25.10;;;;;;6246680;23;20319;-85
2023/03/05 18:48:55;;;;;;;39.05;17.73;;;1.90;24.70;;;;;;6249032;23;20081;-86
2023/03/05 18:51:45;;;;;;;52.95;23.60;;;1.90;24.00;;;;;;6251588;22;20020;-87
2023/03/05 18:54:33;;;;;;;48.65;22.67;;;1.90;24.30;;;;;;6249794;23;20024;-85
2023/03/05 18:57:20;;;;;;;57.17;25.38;;;1.90;26.20;;;;;;6247488;23;20052;-85
2023/03/05 19:00:21;;;;;;;52.72;24.92;;;1.90;31.70;;;;;;6250462;22;20028;-87
2023/03/05 19:03:17;;;;;;;49.85;23.30;;;1.90;45.70;;;;;;6247683;23;20130;-85
2023/03/05 19:06:08;;;;;;;67.60;26.75;;;1.90;40.60;;;;;;6250541;22;20040;-86
2023/03/05 19:09:04;;;;;;;58.58;26.52;;;1.90;45.80;;;;;;6247251;23;20020;-88
2023/03/05 19:11:54;;;;;;;47.70;23.13;;;1.80;49.40;;;;;;6247189;23;20111;-85
2023/03/05 19:14:42;;;;;;;54.78;23.02;;;1.80;55.10;;;;;;6251511;22;20103;-85
2023/03/05 19:17:33;;;;;;;46.25;21.08;;;1.80;53.70;;;;;;6248666;23;20028;-87